createdAt,value
2023-11-16T00:05:06.928Z,98.20
2023-11-16T00:12:08.851Z,98.80
2023-11-16T00:19:10.654Z,97.31
2023-11-16T00:26:12.698Z,97.35
2023-11-16T00:33:23.117Z,98.68
2023-11-16T00:40:25.248Z,94.92
2023-11-16T00:47:28.259Z,96.22
2023-11-16T00:54:30.079Z,96.50
2023-11-16T01:01:33.310Z,97.64
2023-11-16T01:08:37.786Z,97.73
2023-11-16T01:15:39.981Z,96.37
2023-11-16T01:22:47.175Z,97.96
2023-11-16T01:29:48.929Z,95.31
2023-11-16T01:36:52.921Z,95.65
2023-11-16T01:43:54.975Z,95.72
2023-11-16T01:50:57.515Z,97.41
2023-11-16T01:57:59.934Z,96.36
2023-11-16T02:05:03.771Z,93.62
2023-11-16T02:12:06.155Z,92.80
2023-11-16T02:19:31.546Z,94.77
2023-11-16T02:26:34.436Z,93.03
2023-11-16T02:33:36.629Z,91.53
2023-11-16T02:40:40.252Z,92.21
2023-11-16T02:47:42.041Z,91.31
2023-11-16T02:54:43.951Z,89.28
2023-11-16T03:01:46.012Z,89.12
2023-11-16T03:08:48.691Z,89.21
2023-11-16T03:15:50.453Z,88.31
2023-11-16T03:22:52.215Z,87.68
2023-11-16T03:29:59.315Z,87.51
2023-11-16T03:37:03.652Z,86.93
2023-11-16T03:44:05.485Z,87.17
2023-11-16T03:51:07.570Z,86.04
2023-11-16T03:58:09.359Z,85.66
2023-11-16T04:05:11.100Z,85.83
2023-11-16T04:12:13.001Z,84.99
2023-11-16T04:19:14.899Z,84.43
2023-11-16T04:26:18.164Z,84.12
2023-11-16T04:33:21.710Z,83.87
2023-11-16T04:40:26.753Z,84.12
2023-11-16T04:47:28.563Z,83.79
2023-11-16T04:54:30.412Z,83.75
2023-11-16T05:01:32.462Z,82.83
2023-11-16T05:08:34.242Z,82.91
2023-11-16T05:15:36.473Z,82.06
2023-11-16T05:22:39.023Z,81.98
2023-11-16T05:29:40.741Z,82.63
2023-11-16T05:36:42.566Z,83.05
2023-11-16T05:43:44.469Z,82.86
2023-11-16T05:50:47.888Z,82.51
2023-11-16T05:57:49.885Z,82.57
2023-11-16T06:04:51.781Z,82.83
2023-11-16T06:11:53.844Z,82.01
2023-11-16T06:18:57.451Z,82.03
2023-11-16T06:25:59.226Z,80.40
2023-11-16T06:33:01.116Z,79.44
2023-11-16T06:40:03.308Z,78.89
2023-11-16T06:47:05.472Z,77.70
2023-11-16T06:54:07.326Z,78.62
2023-11-16T07:01:09.253Z,78.45
2023-11-16T07:08:10.975Z,78.17
2023-11-16T07:15:13.689Z,77.05
2023-11-16T07:22:15.690Z,77.42
2023-11-16T07:29:19.202Z,75.33
2023-11-16T07:36:27.690Z,76.03
2023-11-16T07:43:29.481Z,73.90
2023-11-16T07:50:33.299Z,74.15
2023-11-16T07:57:38.162Z,77.26
2023-11-16T08:04:40.544Z,77.85
2023-11-16T08:11:43.818Z,76.81
2023-11-16T08:18:45.963Z,79.49
2023-11-16T08:25:51.754Z,79.57
2023-11-16T08:32:54.160Z,78.64
2023-11-16T08:39:56.494Z,78.69
2023-11-16T08:47:05.041Z,77.43
2023-11-16T08:54:08.889Z,77.22
2023-11-16T09:01:11.843Z,78.02
2023-11-16T09:08:14.705Z,77.57
2023-11-16T09:15:17.512Z,78.09
2023-11-16T09:22:19.315Z,77.27
2023-11-16T09:29:21.159Z,75.28
2023-11-16T09:36:23.060Z,75.44
2023-11-16T09:43:26.325Z,73.70
2023-11-16T09:50:29.180Z,73.57
2023-11-16T09:57:35.003Z,72.99
2023-11-16T10:04:43.165Z,73.39
2023-11-16T10:11:45.072Z,71.98
2023-11-16T10:18:50.290Z,64.27
2023-11-16T10:25:52.513Z,61.81
2023-11-16T10:32:54.323Z,61.26
2023-11-16T10:39:56.725Z,59.27
2023-11-16T10:46:59.228Z,59.93
2023-11-16T10:54:01.110Z,57.52
2023-11-16T11:01:03.486Z,58.04
2023-11-16T11:08:09.998Z,55.71
2023-11-16T11:15:15.737Z,55.92
2023-11-16T11:22:17.524Z,54.15
2023-11-16T11:29:24.637Z,54.04
2023-11-16T11:36:26.946Z,54.59
2023-11-16T11:43:29.017Z,54.35
2023-11-16T11:50:35.868Z,54.24
2023-11-16T11:57:40.168Z,55.87
2023-11-16T12:04:42.429Z,56.54
2023-11-16T12:11:44.538Z,55.32
2023-11-16T12:18:49.552Z,52.72
2023-11-16T12:25:51.407Z,52.10
2023-11-16T12:32:53.809Z,52.04
2023-11-16T12:39:56.913Z,50.48
2023-11-16T12:46:59.281Z,51.52
2023-11-16T12:54:01.265Z,51.14
2023-11-16T13:01:03.080Z,51.49
2023-11-16T13:08:05.123Z,52.11
2023-11-16T13:15:08.106Z,52.36
2023-11-16T13:22:09.906Z,51.26
2023-11-16T13:29:13.997Z,51.97
2023-11-16T13:36:15.936Z,51.47
2023-11-16T13:43:19.001Z,52.18
2023-11-16T13:50:21.489Z,52.55
2023-11-16T13:57:23.378Z,52.45
2023-11-16T14:04:25.191Z,52.22
2023-11-16T14:11:27.031Z,52.26
2023-11-16T14:18:29.608Z,53.15
2023-11-16T14:25:37.016Z,53.08
2023-11-16T14:32:44.141Z,53.21
2023-11-16T14:39:46.138Z,53.46
2023-11-16T14:46:48.088Z,54.44
2023-11-16T14:53:54.926Z,54.79
2023-11-16T15:01:01.565Z,54.91
2023-11-16T15:08:04.173Z,55.26
2023-11-16T15:15:06.476Z,54.87
2023-11-16T15:22:09.429Z,54.53
2023-11-16T15:29:11.766Z,54.84
2023-11-16T15:36:13.534Z,55.11
2023-11-16T15:43:16.370Z,55.29
2023-11-16T15:50:18.218Z,55.22
2023-11-16T15:57:20.514Z,55.26
2023-11-16T16:04:22.894Z,55.51
2023-11-16T16:11:25.696Z,56.04
2023-11-16T16:18:28.507Z,56.20
2023-11-16T16:25:30.360Z,56.86
2023-11-16T16:32:32.400Z,56.51
2023-11-16T16:39:36.236Z,56.59
2023-11-16T16:46:42.176Z,57.02
2023-11-16T16:53:46.762Z,56.95
2023-11-16T17:00:49.942Z,57.45
2023-11-16T17:07:51.918Z,57.86
2023-11-16T17:14:54.039Z,57.92
2023-11-16T17:21:56.603Z,57.75
2023-11-16T17:28:59.777Z,57.74
2023-11-16T17:36:05.770Z,57.83
2023-11-16T17:43:10.758Z,57.81
2023-11-16T17:50:12.570Z,57.91
2023-11-16T17:57:16.446Z,58.62
2023-11-16T18:04:18.384Z,58.53
2023-11-16T18:11:20.310Z,59.02
2023-11-16T18:18:22.710Z,59.43
2023-11-16T18:25:26.739Z,59.14
2023-11-16T18:32:28.629Z,59.04
2023-11-16T18:39:33.051Z,59.07
2023-11-16T18:46:37.425Z,59.28
2023-11-16T18:53:39.379Z,59.36
2023-11-16T19:00:41.259Z,59.25
2023-11-16T19:07:43.208Z,58.96
2023-11-16T19:14:45.189Z,58.50
2023-11-16T19:21:47.240Z,58.00
2023-11-16T19:28:50.132Z,57.99
2023-11-16T19:35:52.713Z,57.30
2023-11-16T19:42:55.329Z,57.41
2023-11-16T19:49:57.713Z,57.17
2023-11-16T19:56:59.682Z,57.05
2023-11-16T20:04:01.895Z,56.57
2023-11-16T20:11:12.711Z,56.30
2023-11-16T20:18:14.605Z,56.05
2023-11-16T20:25:18.778Z,56.20
2023-11-16T20:32:20.859Z,56.88
2023-11-16T20:39:22.631Z,56.97
2023-11-16T20:46:24.408Z,56.40
2023-11-16T20:53:26.346Z,56.72
2023-11-16T21:00:28.123Z,57.34
2023-11-16T21:07:30.048Z,57.04
2023-11-16T21:14:31.874Z,57.13
2023-11-16T21:21:33.664Z,57.18
2023-11-16T21:28:35.608Z,57.33
2023-11-16T21:35:37.830Z,57.38
2023-11-16T21:42:40.434Z,57.91
2023-11-16T21:49:42.472Z,57.53
2023-11-16T21:56:44.198Z,57.47
2023-11-16T22:03:46.725Z,57.58
2023-11-16T22:10:48.691Z,57.36
2023-11-16T22:17:51.595Z,57.80
2023-11-16T22:24:53.789Z,57.91
2023-11-16T22:31:55.623Z,57.76
2023-11-16T22:38:57.505Z,58.17
2023-11-16T22:45:59.608Z,58.83
2023-11-16T22:53:01.360Z,58.80
2023-11-16T23:00:10.609Z,58.94
2023-11-16T23:07:14.559Z,58.97
2023-11-16T23:14:17.104Z,59.44
2023-11-16T23:21:30.269Z,59.34
2023-11-16T23:28:39.531Z,60.01
2023-11-16T23:35:41.453Z,60.04
2023-11-16T23:42:43.381Z,59.84
2023-11-16T23:49:45.728Z,59.77
2023-11-16T23:56:47.994Z,59.99
